Welcome to Northern Hawkes Bay. New Zealand.
PWS Header
      nz Flag



Hit Counter


W3C Valid W3C Valid logo


    Wairoa

Select any of the Stations below to visit their websites.










Historic Data from Weather Underground
Select the location of interest below. Wairoa is the default. Please have patience, this Data is slow to load in.
Northern Hawkes Bay Historical Data
Daily Summary for July 29, 2017 Units:  Metric    English   Both
« Previous Day
Next Day »
Daily Weekly Monthly Yearly Custom
  High: Low: Average:
Temperature: 10.7 °C 6.0 °C 8.1 °C
Dew Point: 3.5 °C 0.8 °C 2 °C
Humidity: 79% 55% 66%
Wind Speed: 41.7km/h 8.7km/h 24.4km/h
Wind Gust: 55.0km/h - -
Wind- - SW
Pressure: 1024.3 hPa 1015.5 hPa -
Precipitation: 0.0 mm    
Historical Graphs
 
 
Tabular Data for July 29, 2017
Time Temperature Dew Point Pressure Wind Wind Speed Wind Gust Humidity Rainfall Rate (Hourly) solar
00:10 6.7 °C 2.2 °C 1015.5 hPa SW 33.1 km/h 47.9 km/h 73% 0.0 mm 0 W/m2
00:15 6.8 °C 2.3 °C 1015.5 hPa SW 30.6 km/h 47.9 km/h 73% 0.0 mm 0 W/m2
00:20 6.8 °C 2.3 °C 1015.5 hPa SW 23.3 km/h 45.4 km/h 73% 0.0 mm 0 W/m2
00:25 6.8 °C 2.3 °C 1015.5 hPa SW 27.0 km/h 45.4 km/h 73% 0.0 mm 0 W/m2
00:30 6.7 °C 2.2 °C 1015.8 hPa SW 23.3 km/h 41.7 km/h 73% 0.0 mm 0 W/m2
00:35 6.8 °C 2.3 °C 1015.5 hPa WSW 20.9 km/h 39.3 km/h 73% 0.0 mm 0 W/m2
00:40 6.8 °C 2.3 °C 1015.8 hPa SW 18.3 km/h 37.8 km/h 73% 0.0 mm 0 W/m2
00:45 6.8 °C 2.3 °C 1015.8 hPa SW 18.3 km/h 45.4 km/h 73% 0.0 mm 0 W/m2
00:50 6.8 °C 2.3 °C 1015.5 hPa SW 18.3 km/h 45.4 km/h 73% 0.0 mm 0 W/m2
00:55 6.7 °C 2.2 °C 1015.8 hPa West 27.0 km/h 43.9 km/h 73% 0.0 mm 0 W/m2
01:00 6.7 °C 2.2 °C 1015.5 hPa West 23.3 km/h 43.9 km/h 73% 0.0 mm 0 W/m2
01:05 6.7 °C 2.2 °C 1015.8 hPa WSW 14.8 km/h 40.4 km/h 73% 0.0 mm 0 W/m2
01:10 6.6 °C 2.1 °C 1015.8 hPa SW 21.9 km/h 41.7 km/h 73% 0.0 mm 0 W/m2
01:15 6.7 °C 2.4 °C 1015.8 hPa SW 21.9 km/h 42.8 km/h 74% 0.0 mm 0 W/m2
01:20 6.7 °C 2.4 °C 1015.8 hPa SW 30.6 km/h 42.8 km/h 74% 0.0 mm 0 W/m2
01:25 6.7 °C 2.4 °C 1015.8 hPa SW 31.7 km/h 42.8 km/h 74% 0.0 mm 0 W/m2
01:30 6.7 °C 2.4 °C 1015.8 hPa WSW 19.5 km/h 42.8 km/h 74% 0.0 mm 0 W/m2
01:35 6.7 °C 2.2 °C 1016.1 hPa WSW 28.0 km/h 42.8 km/h 73% 0.0 mm 0 W/m2
01:40 6.7 °C 2.2 °C 1016.1 hPa SW 27.0 km/h 48.9 km/h 73% 0.0 mm 0 W/m2
01:45 6.6 °C 2.1 °C 1016.1 hPa SW 31.7 km/h 48.9 km/h 73% 0.0 mm 0 W/m2
01:50 6.6 °C 2.3 °C 1016.1 hPa SW 37.8 km/h 47.9 km/h 74% 0.0 mm 0 W/m2
01:55 6.2 °C 2.3 °C 1016.1 hPa SW 24.5 km/h 47.9 km/h 76% 0.0 mm 0 W/m2
02:00 6.0 °C 2.6 °C 1016.1 hPa SW 23.3 km/h 45.4 km/h 79% 0.0 mm 0 W/m2
02:05 6.1 °C 2.7 °C 1016.1 hPa SW 23.3 km/h 43.9 km/h 79% 0.0 mm 0 W/m2
02:11 6.1 °C 2.7 °C 1016.1 hPa SW 25.6 km/h 46.5 km/h 79% 0.0 mm 0 W/m2
02:16 6.2 °C 2.4 °C 1015.8 hPa SW 24.5 km/h 46.5 km/h 77% 0.0 mm 0 W/m2
02:21 6.2 °C 2.4 °C 1015.8 hPa SW 19.5 km/h 40.4 km/h 77% 0.0 mm 0 W/m2
02:26 6.1 °C 2.4 °C 1016.1 hPa SW 21.9 km/h 40.4 km/h 77% 0.0 mm 0 W/m2
02:31 6.1 °C 2.2 °C 1016.1 hPa SW 23.3 km/h 45.4 km/h 76% 0.0 mm 0 W/m2
02:36 6.1 °C 2.2 °C 1016.1 hPa SW 20.9 km/h 45.4 km/h 76% 0.0 mm 0 W/m2
02:41 6.1 °C 2.0 °C 1016.1 hPa SW 21.9 km/h 42.8 km/h 75% 0.0 mm 0 W/m2
02:46 6.1 °C 2.2 °C 1016.1 hPa WSW 24.5 km/h 42.8 km/h 76% 0.0 mm 0 W/m2
02:51 6.2 °C 2.3 °C 1016.1 hPa WSW 25.6 km/h 36.7 km/h 76% 0.0 mm 0 W/m2
02:56 6.2 °C 2.1 °C 1016.1 hPa WSW 28.0 km/h 41.7 km/h 75% 0.0 mm 0 W/m2
03:01 6.2 °C 2.1 °C 1016.1 hPa SW 23.3 km/h 41.7 km/h 75% 0.0 mm 0 W/m2
03:06 6.2 °C 1.9 °C 1016.1 hPa SSW 25.6 km/h 42.8 km/h 74% 0.0 mm 0 W/m2
03:11 6.2 °C 2.1 °C 1016.1 hPa SW 18.3 km/h 42.8 km/h 75% 0.0 mm 0 W/m2
03:16 6.2 °C 2.1 °C 1016.1 hPa SW 23.3 km/h 39.3 km/h 75% 0.0 mm 0 W/m2
03:21 6.2 °C 2.1 °C 1016.1 hPa SW 25.6 km/h 39.3 km/h 75% 0.0 mm 0 W/m2
03:26 6.4 °C 2.3 °C 1016.1 hPa SW 28.0 km/h 42.8 km/h 75% 0.0 mm 0 W/m2
03:31 6.2 °C 1.9 °C 1016.1 hPa SW 17.2 km/h 43.9 km/h 74% 0.0 mm 0 W/m2
03:36 6.2 °C 1.9 °C 1016.1 hPa SW 21.9 km/h 43.9 km/h 74% 0.0 mm 0 W/m2
03:41 6.4 °C 2.3 °C 1016.5 hPa WSW 33.1 km/h 42.8 km/h 75% 0.0 mm 0 W/m2
03:46 6.4 °C 2.1 °C 1016.1 hPa WSW 25.6 km/h 42.8 km/h 74% 0.0 mm 0 W/m2
03:51 6.4 °C 2.1 °C 1016.1 hPa WSW 29.4 km/h 42.8 km/h 74% 0.0 mm 0 W/m2
03:56 6.4 °C 2.1 °C 1016.5 hPa WSW 41.7 km/h 52.6 km/h 74% 0.0 mm 0 W/m2
04:01 6.4 °C 1.9 °C 1016.5 hPa SW 24.5 km/h 52.6 km/h 73% 0.0 mm 0 W/m2
04:06 6.4 °C 1.9 °C 1016.5 hPa WSW 29.4 km/h 47.9 km/h 73% 0.0 mm 0 W/m2
04:11 6.4 °C 1.9 °C 1016.5 hPa WSW 21.9 km/h 46.5 km/h 73% 0.0 mm 0 W/m2
04:16 6.4 °C 1.9 °C 1016.5 hPa WSW 17.2 km/h 43.9 km/h 73% 0.0 mm 0 W/m2
04:22 6.4 °C 1.9 °C 1016.5 hPa WSW 23.3 km/h 43.9 km/h 73% 0.0 mm 0 W/m2
04:27 6.4 °C 1.9 °C 1016.5 hPa WSW 17.2 km/h 39.3 km/h 73% 0.0 mm 0 W/m2
04:32 6.4 °C 1.9 °C 1016.5 hPa SW 25.6 km/h 39.3 km/h 73% 0.0 mm 0 W/m2
04:37 6.4 °C 2.1 °C 1016.8 hPa SW 33.1 km/h 46.5 km/h 74% 0.0 mm 0 W/m2
04:42 6.4 °C 1.9 °C 1016.5 hPa SW 27.0 km/h 46.5 km/h 73% 0.0 mm 0 W/m2
04:47 6.5 °C 2.0 °C 1016.8 hPa WSW 35.6 km/h 46.5 km/h 73% 0.0 mm 0 W/m2
04:57 6.5 °C 2.0 °C 1016.8 hPa SW 29.4 km/h 55.0 km/h 73% 0.0 mm 0 W/m2
05:02 6.4 °C 1.9 °C 1016.8 hPa WSW 25.6 km/h 55.0 km/h 73% 0.0 mm 0 W/m2
05:07 6.4 °C 1.9 °C 1016.8 hPa West 30.6 km/h 43.9 km/h 73% 0.0 mm 0 W/m2
05:12 6.4 °C 2.1 °C 1016.5 hPa WSW 31.7 km/h 46.5 km/h 74% 0.0 mm 0 W/m2
05:17 6.4 °C 2.1 °C 1016.5 hPa SW 27.0 km/h 46.5 km/h 74% 0.0 mm 0 W/m2
05:22 6.4 °C 2.1 °C 1016.5 hPa SW 23.3 km/h 46.5 km/h 74% 0.0 mm 0 W/m2
05:27 6.4 °C 1.9 °C 1016.8 hPa SW 34.3 km/h 46.5 km/h 73% 0.0 mm 0 W/m2
05:32 6.4 °C 1.7 °C 1016.8 hPa WSW 25.6 km/h 46.5 km/h 72% 0.0 mm 0 W/m2
05:37 6.4 °C 1.9 °C 1016.8 hPa WSW 36.7 km/h 51.5 km/h 73% 0.0 mm 0 W/m2
05:42 6.4 °C 1.7 °C 1016.8 hPa SW 33.1 km/h 51.5 km/h 72% 0.0 mm 0 W/m2
05:47 6.5 °C 2.0 °C 1017.2 hPa SW 27.0 km/h 51.5 km/h 73% 0.0 mm 0 W/m2
05:48 6.4 °C 1.7 °C 1016.8 hPa SW 27.0 km/h 50.0 km/h 72% 0.0 mm 0 W/m2
05:58 6.5 °C 1.8 °C 1017.2 hPa WSW 18.3 km/h 46.5 km/h 72% 0.0 mm 0 W/m2
06:03 6.5 °C 1.8 °C 1017.2 hPa SW 24.5 km/h 46.5 km/h 72% 0.0 mm 0 W/m2
06:08 6.6 °C 1.9 °C 1017.5 hPa SW 21.9 km/h 43.9 km/h 72% 0.0 mm 0 W/m2
06:13 6.6 °C 1.7 °C 1017.5 hPa SW 23.3 km/h 46.5 km/h 71% 0.0 mm 0 W/m2
06:18 6.6 °C 1.9 °C 1017.5 hPa SW 25.6 km/h 46.5 km/h 72% 0.0 mm 0 W/m2
06:23 6.4 °C 1.7 °C 1017.5 hPa SW 23.3 km/h 42.8 km/h 72% 0.0 mm 0 W/m2
06:28 6.2 °C 1.6 °C 1017.8 hPa SW 34.3 km/h 48.9 km/h 72% 0.0 mm 0 W/m2
06:33 6.4 °C 1.7 °C 1017.8 hPa WSW 28.0 km/h 48.9 km/h 72% 0.0 mm 0 W/m2
06:38 6.2 °C 1.6 °C 1017.5 hPa SW 28.0 km/h 48.9 km/h 72% 0.0 mm 0 W/m2
06:43 6.4 °C 1.7 °C 1017.5 hPa SW 19.5 km/h 36.7 km/h 72% 0.0 mm 0 W/m2
06:48 6.4 °C 1.7 °C 1017.8 hPa SW 21.9 km/h 42.8 km/h 72% 0.0 mm 0 W/m2
06:53 6.4 °C 1.6 °C 1017.8 hPa SW 29.4 km/h 43.9 km/h 71% 0.0 mm 0 W/m2
06:58 6.4 °C 1.7 °C 1017.8 hPa WSW 20.9 km/h 43.9 km/h 72% 0.0 mm 0 W/m2
07:03 6.4 °C 1.7 °C 1017.8 hPa West 24.5 km/h 42.8 km/h 72% 0.0 mm 0 W/m2
07:08 6.6 °C 1.7 °C 1018.2 hPa SW 19.5 km/h 45.4 km/h 71% 0.0 mm 0 W/m2
07:13 6.6 °C 1.3 °C 1018.2 hPa SW 25.6 km/h 45.4 km/h 69% 0.0 mm 0 W/m2
07:18 6.6 °C 1.5 °C 1018.2 hPa SW 24.5 km/h 45.4 km/h 70% 0.0 mm 0 W/m2
07:23 6.7 °C 1.2 °C 1018.2 hPa SW 29.4 km/h 45.4 km/h 68% 0.0 mm 0 W/m2
07:28 6.7 °C 1.0 °C 1018.2 hPa WSW 30.6 km/h 50.0 km/h 67% 0.0 mm 3 W/m2
07:33 6.7 °C 1.0 °C 1018.5 hPa SW 27.0 km/h 50.0 km/h 67% 0.0 mm 5 W/m2
07:38 6.7 °C 1.2 °C 1018.2 hPa SW 25.6 km/h 45.4 km/h 68% 0.0 mm 8 W/m2
07:43 6.7 °C 1.0 °C 1018.2 hPa WSW 23.3 km/h 43.9 km/h 67% 0.0 mm 13 W/m2
07:48 6.7 °C 1.0 °C 1018.2 hPa West 24.5 km/h 46.5 km/h 67% 0.0 mm 18 W/m2
07:53 6.7 °C 1.0 °C 1018.5 hPa WSW 18.3 km/h 46.5 km/h 67% 0.0 mm 21 W/m2
07:58 6.8 °C 0.9 °C 1018.5 hPa SW 23.3 km/h 43.9 km/h 66% 0.0 mm 19 W/m2
08:03 6.8 °C 1.3 °C 1018.5 hPa SW 18.3 km/h 43.9 km/h 68% 0.0 mm 19 W/m2
08:08 6.8 °C 1.1 °C 1018.5 hPa SW 25.6 km/h 47.9 km/h 67% 0.0 mm 22 W/m2
08:13 6.9 °C 1.0 °C 1018.5 hPa WSW 27.0 km/h 51.5 km/h 66% 0.0 mm 24 W/m2
08:18 6.9 °C 1.0 °C 1018.2 hPa WSW 31.7 km/h 51.5 km/h 66% 0.0 mm 27 W/m2
08:23 6.9 °C 0.8 °C 1018.5 hPa SW 21.9 km/h 50.0 km/h 65% 0.0 mm 43 W/m2
08:28 7.1 °C 0.8 °C 1018.5 hPa SW 23.3 km/h 50.0 km/h 64% 0.0 mm 57 W/m2
08:33 7.4 °C 1.1 °C 1018.5 hPa WSW 31.7 km/h 46.5 km/h 64% 0.0 mm 67 W/m2
08:38 7.3 °C 0.9 °C 1018.5 hPa SW 29.4 km/h 42.8 km/h 64% 0.0 mm 51 W/m2
08:43 7.4 °C 1.1 °C 1018.8 hPa SW 29.4 km/h 42.8 km/h 64% 0.0 mm 179 W/m2
08:48 7.5 °C 1.3 °C 1018.8 hPa WSW 19.5 km/h 42.8 km/h 65% 0.0 mm 67 W/m2
08:53 7.6 °C 1.2 °C 1018.8 hPa WSW 21.9 km/h 43.9 km/h 64% 0.0 mm 54 W/m2
08:58 7.4 °C 1.1 °C 1018.8 hPa WSW 24.5 km/h 43.9 km/h 64% 0.0 mm 188 W/m2
09:03 7.8 °C 1.4 °C 1018.8 hPa SW 17.2 km/h 42.8 km/h 64% 0.0 mm 123 W/m2
09:08 7.6 °C 1.2 °C 1018.8 hPa SW 21.9 km/h 43.9 km/h 64% 0.0 mm 75 W/m2
09:13 7.4 °C 1.3 °C 1018.8 hPa SW 20.9 km/h 43.9 km/h 65% 0.0 mm 66 W/m2
09:18 7.3 °C 1.2 °C 1018.8 hPa WSW 20.9 km/h 47.9 km/h 65% 0.0 mm 61 W/m2
09:23 7.3 °C 1.2 °C 1018.8 hPa SW 25.6 km/h 47.9 km/h 65% 0.0 mm 57 W/m2
09:29 7.5 °C 1.1 °C 1018.8 hPa SW 29.4 km/h 48.9 km/h 64% 0.0 mm 243 W/m2
09:34 7.9 °C 1.5 °C 1019.2 hPa SW 30.6 km/h 48.9 km/h 64% 0.0 mm 162 W/m2
09:52 8.4 °C 1.3 °C 1019.2 hPa WSW 29.4 km/h 55.0 km/h 61% 0.0 mm 68 W/m2
09:57 8.4 °C 1.1 °C 1018.8 hPa WSW 29.4 km/h 54.1 km/h 60% 0.0 mm 69 W/m2
10:02 8.6 °C 1.9 °C 1019.2 hPa WSW 34.3 km/h 54.1 km/h 63% 0.0 mm 74 W/m2
10:07 8.6 °C 1.5 °C 1019.2 hPa WSW 30.6 km/h 48.9 km/h 61% 0.0 mm 92 W/m2
10:12 8.6 °C 1.7 °C 1019.2 hPa WSW 19.5 km/h 48.9 km/h 62% 0.0 mm 78 W/m2
10:17 8.4 °C 1.8 °C 1019.2 hPa SW 24.5 km/h 46.5 km/h 63% 0.0 mm 68 W/m2
10:27 8.8 °C 2.2 °C 1019.2 hPa SW 28.0 km/h 48.9 km/h 63% 0.0 mm 67 W/m2
10:32 8.8 °C 1.4 °C 1019.2 hPa SW 30.6 km/h 50.0 km/h 60% 0.0 mm 69 W/m2
10:37 8.9 °C 1.8 °C 1019.2 hPa SW 30.6 km/h 52.6 km/h 61% 0.0 mm 76 W/m2
10:42 9.1 °C 1.5 °C 1019.2 hPa SW 23.3 km/h 52.6 km/h 59% 0.0 mm 88 W/m2
10:47 9.1 °C 1.3 °C 1019.2 hPa SW 28.0 km/h 46.5 km/h 58% 0.0 mm 135 W/m2
10:52 9.1 °C 1.3 °C 1019.2 hPa SW 30.6 km/h 46.5 km/h 58% 0.0 mm 156 W/m2
10:57 9.3 °C 1.4 °C 1019.5 hPa SW 18.3 km/h 46.5 km/h 58% 0.0 mm 227 W/m2
11:02 9.5 °C 1.7 °C 1019.5 hPa SW 23.3 km/h 47.9 km/h 58% 0.0 mm 264 W/m2
11:07 9.5 °C 1.7 °C 1019.2 hPa SW 30.6 km/h 47.9 km/h 58% 0.0 mm 268 W/m2
11:12 9.4 °C 1.3 °C 1019.5 hPa WSW 30.6 km/h 50.0 km/h 57% 0.0 mm 313 W/m2
11:17 9.5 °C 2.1 °C 1019.5 hPa WSW 31.7 km/h 50.0 km/h 60% 0.0 mm 275 W/m2
11:22 9.4 °C 2.1 °C 1019.5 hPa SW 31.7 km/h 47.9 km/h 60% 0.0 mm 303 W/m2
11:27 9.6 °C 2.4 °C 1019.5 hPa SW 27.0 km/h 46.5 km/h 61% 0.0 mm 309 W/m2
11:32 9.6 °C 2.4 °C 1019.5 hPa WSW 30.6 km/h 50.0 km/h 61% 0.0 mm 289 W/m2
11:37 9.4 °C 1.8 °C 1019.5 hPa SW 33.1 km/h 50.0 km/h 59% 0.0 mm 280 W/m2
11:42 9.7 °C 2.3 °C 1019.5 hPa SW 28.0 km/h 47.9 km/h 60% 0.0 mm 314 W/m2
11:47 9.7 °C 2.3 °C 1019.5 hPa SW 25.6 km/h 46.5 km/h 60% 0.0 mm 261 W/m2
11:52 9.6 °C 2.7 °C 1019.2 hPa SW 25.6 km/h 40.4 km/h 62% 0.0 mm 266 W/m2
11:57 10.0 °C 2.3 °C 1019.5 hPa WSW 25.6 km/h 41.7 km/h 59% 0.0 mm 245 W/m2
12:02 10.0 °C 1.6 °C 1019.2 hPa WSW 28.0 km/h 41.7 km/h 56% 0.0 mm 248 W/m2
12:07 10.0 °C 1.6 °C 1019.2 hPa SW 23.3 km/h 43.9 km/h 56% 0.0 mm 240 W/m2
12:12 10.1 °C 2.4 °C 1019.2 hPa SW 19.5 km/h 43.9 km/h 59% 0.0 mm 226 W/m2
12:17 9.9 °C 1.8 °C 1019.2 hPa WSW 23.3 km/h 46.5 km/h 57% 0.0 mm 117 W/m2
12:27 10.2 °C 2.3 °C 1019.2 hPa SW 23.3 km/h 54.1 km/h 58% 0.0 mm 208 W/m2
12:32 10.4 °C 2.3 °C 1018.8 hPa SW 25.6 km/h 54.1 km/h 57% 0.0 mm 79 W/m2
12:37 10.1 °C 2.7 °C 1019.2 hPa SW 19.5 km/h 47.9 km/h 60% 0.0 mm 165 W/m2
12:42 10.0 °C 2.1 °C 1018.8 hPa SW 30.6 km/h 47.9 km/h 58% 0.0 mm 69 W/m2
12:47 10.1 °C 2.2 °C 1018.8 hPa SW 19.5 km/h 46.5 km/h 58% 0.0 mm 109 W/m2
12:52 10.0 °C 2.8 °C 1019.2 hPa SSW 24.5 km/h 46.5 km/h 61% 0.0 mm 154 W/m2
12:57 9.7 °C 3.2 °C 1019.2 hPa SW 23.3 km/h 43.9 km/h 64% 0.0 mm 147 W/m2
13:02 10.2 °C 3.5 °C 1018.8 hPa SW 19.5 km/h 43.9 km/h 63% 0.0 mm 121 W/m2
13:07 10.3 °C 2.7 °C 1018.8 hPa SW 18.3 km/h 41.7 km/h 59% 0.0 mm 128 W/m2
13:12 10.0 °C 2.3 °C 1018.8 hPa SW 25.6 km/h 41.7 km/h 59% 0.0 mm 88 W/m2
13:17 9.8 °C 2.4 °C 1019.2 hPa SW 31.7 km/h 42.8 km/h 60% 0.0 mm 126 W/m2
13:22 10.2 °C 2.6 °C 1018.8 hPa WSW 21.9 km/h 42.8 km/h 59% 0.0 mm 113 W/m2
13:27 10.0 °C 2.3 °C 1018.8 hPa WSW 30.6 km/h 47.9 km/h 59% 0.0 mm 156 W/m2
13:32 10.1 °C 2.2 °C 1018.8 hPa SW 24.5 km/h 47.9 km/h 58% 0.0 mm 153 W/m2
13:37 9.9 °C 2.0 °C 1019.2 hPa SW 27.0 km/h 45.4 km/h 58% 0.0 mm 142 W/m2
13:42 10.1 °C 2.4 °C 1019.2 hPa SW 25.6 km/h 45.4 km/h 59% 0.0 mm 121 W/m2
13:47 10.0 °C 1.6 °C 1018.8 hPa SW 29.4 km/h 43.9 km/h 56% 0.0 mm 129 W/m2
13:52 9.8 °C 2.4 °C 1018.8 hPa SW 23.3 km/h 45.4 km/h 60% 0.0 mm 116 W/m2
13:57 9.6 °C 2.0 °C 1018.8 hPa SW 28.0 km/h 45.4 km/h 59% 0.0 mm 138 W/m2
14:02 9.7 °C 2.3 °C 1018.8 hPa SSW 27.0 km/h 42.8 km/h 60% 0.0 mm 99 W/m2
14:07 9.5 °C 1.9 °C 1019.2 hPa SW 34.3 km/h 47.9 km/h 59% 0.0 mm 117 W/m2
14:12 10.0 °C 2.8 °C 1018.8 hPa SW 34.3 km/h 47.9 km/h 61% 0.0 mm 112 W/m2
14:17 10.0 °C 2.1 °C 1018.8 hPa SW 37.8 km/h 54.1 km/h 58% 0.0 mm 99 W/m2
14:22 9.7 °C 2.1 °C 1019.2 hPa SW 21.9 km/h 54.1 km/h 59% 0.0 mm 88 W/m2
14:27 9.5 °C 1.9 °C 1019.5 hPa SW 33.1 km/h 50.0 km/h 59% 0.0 mm 135 W/m2
14:32 9.5 °C 1.7 °C 1019.2 hPa WSW 28.0 km/h 50.0 km/h 58% 0.0 mm 139 W/m2
14:37 9.5 °C 1.4 °C 1019.2 hPa SW 27.0 km/h 47.9 km/h 57% 0.0 mm 168 W/m2
14:42 10.0 °C 2.1 °C 1019.5 hPa SW 28.0 km/h 47.9 km/h 58% 0.0 mm 103 W/m2
14:47 9.8 °C 2.2 °C 1019.2 hPa SW 18.3 km/h 46.5 km/h 59% 0.0 mm 107 W/m2
14:52 9.7 °C 1.8 °C 1019.5 hPa SW 25.6 km/h 46.5 km/h 58% 0.0 mm 113 W/m2
14:57 9.7 °C 2.1 °C 1019.5 hPa SW 25.6 km/h 41.7 km/h 59% 0.0 mm 85 W/m2
15:02 9.6 °C 1.7 °C 1019.5 hPa SW 23.3 km/h 36.7 km/h 58% 0.0 mm 103 W/m2
15:07 9.7 °C 1.8 °C 1019.5 hPa SW 23.3 km/h 41.7 km/h 58% 0.0 mm 71 W/m2
15:12 9.7 °C 2.1 °C 1019.5 hPa SW 29.4 km/h 41.7 km/h 59% 0.0 mm 94 W/m2
15:17 10.0 °C 1.9 °C 1019.2 hPa SW 21.9 km/h 37.8 km/h 57% 0.0 mm 139 W/m2
15:22 10.1 °C 1.9 °C 1019.5 hPa SW 15.8 km/h 37.8 km/h 57% 0.0 mm 140 W/m2
15:27 10.3 °C 1.7 °C 1019.5 hPa SW 23.3 km/h 42.8 km/h 55% 0.0 mm 136 W/m2
15:32 10.5 °C 2.1 °C 1019.5 hPa SW 20.9 km/h 46.5 km/h 56% 0.0 mm 135 W/m2
15:37 10.7 °C 2.6 °C 1019.5 hPa SW 31.7 km/h 46.5 km/h 57% 0.0 mm 153 W/m2
15:42 10.6 °C 2.2 °C 1019.5 hPa SW 23.3 km/h 50.0 km/h 56% 0.0 mm 134 W/m2
15:47 10.3 °C 1.9 °C 1019.5 hPa SW 17.2 km/h 50.0 km/h 56% 0.0 mm 130 W/m2
15:52 10.6 °C 2.4 °C 1019.5 hPa SW 17.2 km/h 45.4 km/h 57% 0.0 mm 108 W/m2
15:57 10.6 °C 2.2 °C 1019.5 hPa SW 18.3 km/h 40.4 km/h 56% 0.0 mm 67 W/m2
16:02 10.1 °C 1.9 °C 1019.5 hPa SW 24.5 km/h 40.4 km/h 57% 0.0 mm 86 W/m2
16:07 9.7 °C 1.8 °C 1019.9 hPa WSW 18.3 km/h 39.3 km/h 58% 0.0 mm 50 W/m2
16:12 9.6 °C 1.5 °C 1019.9 hPa WSW 30.6 km/h 48.9 km/h 57% 0.0 mm 34 W/m2
16:17 9.6 °C 1.7 °C 1019.9 hPa SW 25.6 km/h 48.9 km/h 58% 0.0 mm 51 W/m2
16:22 10.0 °C 2.1 °C 1020.2 hPa SW 15.8 km/h 43.9 km/h 58% 0.0 mm 41 W/m2
16:27 9.9 °C 2.3 °C 1020.2 hPa SW 23.3 km/h 34.3 km/h 59% 0.0 mm 23 W/m2
16:32 9.5 °C 1.9 °C 1020.2 hPa SW 28.0 km/h 36.7 km/h 59% 0.0 mm 17 W/m2
16:37 9.6 °C 1.7 °C 1020.2 hPa SW 21.9 km/h 39.3 km/h 58% 0.0 mm 23 W/m2
16:42 9.6 °C 2.0 °C 1020.2 hPa SW 23.3 km/h 41.7 km/h 59% 0.0 mm 28 W/m2
16:47 9.7 °C 2.1 °C 1020.5 hPa WSW 27.0 km/h 41.7 km/h 59% 0.0 mm 31 W/m2
16:52 9.7 °C 1.6 °C 1020.5 hPa WSW 30.6 km/h 42.8 km/h 57% 0.0 mm 26 W/m2
17:02 9.6 °C 1.5 °C 1020.5 hPa SW 25.6 km/h 47.9 km/h 57% 0.0 mm 12 W/m2
17:07 9.5 °C 1.9 °C 1020.5 hPa SW 24.5 km/h 43.9 km/h 59% 0.0 mm 8 W/m2
17:12 9.4 °C 2.3 °C 1020.5 hPa SW 20.9 km/h 41.7 km/h 61% 0.0 mm 1 W/m2
17:17 9.2 °C 2.1 °C 1020.2 hPa SW 18.3 km/h 37.8 km/h 61% 0.0 mm 0 W/m2
17:22 9.2 °C 2.3 °C 1020.2 hPa SSW 25.6 km/h 39.3 km/h 62% 0.0 mm 0 W/m2
17:27 9.3 °C 2.8 °C 1020.5 hPa SW 21.9 km/h 46.5 km/h 64% 0.0 mm 0 W/m2
17:32 9.2 °C 1.8 °C 1020.5 hPa SW 23.3 km/h 46.5 km/h 60% 0.0 mm 0 W/m2
17:37 9.2 °C 1.6 °C 1020.5 hPa SW 25.6 km/h 42.8 km/h 59% 0.0 mm 0 W/m2
17:42 9.1 °C 1.1 °C 1020.9 hPa SW 27.0 km/h 43.9 km/h 57% 0.0 mm 0 W/m2
17:47 9.1 °C 2.0 °C 1020.9 hPa SSW 34.3 km/h 43.9 km/h 61% 0.0 mm 0 W/m2
17:52 9.0 °C 1.9 °C 1020.9 hPa SW 20.9 km/h 42.8 km/h 61% 0.0 mm 0 W/m2
17:57 9.0 °C 2.8 °C 1020.9 hPa SSW 31.7 km/h 42.8 km/h 65% 0.0 mm 0 W/m2
18:02 9.1 °C 2.9 °C 1021.2 hPa SSW 23.3 km/h 42.8 km/h 65% 0.0 mm 0 W/m2
18:07 9.3 °C 2.6 °C 1021.2 hPa SW 21.9 km/h 42.8 km/h 63% 0.0 mm 0 W/m2
18:12 9.2 °C 2.5 °C 1021.2 hPa SW 28.0 km/h 42.8 km/h 63% 0.0 mm 0 W/m2
18:17 9.1 °C 2.7 °C 1021.2 hPa SW 29.4 km/h 42.8 km/h 64% 0.0 mm 0 W/m2
18:22 9.1 °C 2.4 °C 1021.2 hPa SSW 27.0 km/h 41.7 km/h 63% 0.0 mm 0 W/m2
18:27 9.0 °C 2.3 °C 1021.2 hPa SSW 30.6 km/h 41.7 km/h 63% 0.0 mm 0 W/m2
18:32 9.1 °C 2.2 °C 1021.2 hPa SW 23.3 km/h 46.5 km/h 62% 0.0 mm 0 W/m2
18:37 9.0 °C 2.6 °C 1021.6 hPa SSW 20.9 km/h 46.5 km/h 64% 0.0 mm 0 W/m2
18:42 8.9 °C 2.7 °C 1021.6 hPa SSW 29.4 km/h 46.5 km/h 65% 0.0 mm 0 W/m2
18:47 8.9 °C 2.4 °C 1021.6 hPa SW 23.3 km/h 46.5 km/h 64% 0.0 mm 0 W/m2
18:52 9.0 °C 1.9 °C 1021.6 hPa SW 20.9 km/h 46.5 km/h 61% 0.0 mm 0 W/m2
18:57 8.9 °C 2.7 °C 1021.9 hPa SW 31.7 km/h 46.5 km/h 65% 0.0 mm 0 W/m2
19:02 9.0 °C 2.1 °C 1021.6 hPa SW 24.5 km/h 43.9 km/h 62% 0.0 mm 0 W/m2
19:07 8.8 °C 2.2 °C 1021.9 hPa SSW 17.2 km/h 43.9 km/h 63% 0.0 mm 0 W/m2
19:12 8.9 °C 2.4 °C 1022.2 hPa SSW 27.0 km/h 35.6 km/h 64% 0.0 mm 0 W/m2
19:17 8.9 °C 2.7 °C 1021.9 hPa SW 21.9 km/h 35.6 km/h 65% 0.0 mm 0 W/m2
19:22 8.9 °C 2.4 °C 1021.9 hPa SW 23.3 km/h 39.3 km/h 64% 0.0 mm 0 W/m2
19:27 8.8 °C 2.6 °C 1021.9 hPa SSW 21.9 km/h 39.3 km/h 65% 0.0 mm 0 W/m2
19:32 8.8 °C 2.6 °C 1022.2 hPa SW 29.4 km/h 40.4 km/h 65% 0.0 mm 0 W/m2
19:37 8.9 °C 2.7 °C 1022.2 hPa SW 18.3 km/h 40.4 km/h 65% 0.0 mm 0 W/m2
19:42 8.9 °C 2.7 °C 1022.2 hPa SW 23.3 km/h 40.4 km/h 65% 0.0 mm 0 W/m2
19:47 9.0 °C 2.6 °C 1022.2 hPa SW 25.6 km/h 35.6 km/h 64% 0.0 mm 0 W/m2
19:50 9.0 °C 2.6 °C 1022.2 hPa SW 17.2 km/h 35.6 km/h 64% 0.0 mm 0 W/m2
19:55 8.9 °C 2.7 °C 1022.6 hPa SW 24.5 km/h 40.4 km/h 65% 0.0 mm 0 W/m2
20:00 8.9 °C 2.7 °C 1022.6 hPa SSW 24.5 km/h 40.4 km/h 65% 0.0 mm 0 W/m2
20:05 8.9 °C 2.2 °C 1022.6 hPa SW 27.0 km/h 41.7 km/h 63% 0.0 mm 0 W/m2
20:10 8.9 °C 2.0 °C 1022.6 hPa SW 24.5 km/h 41.7 km/h 62% 0.0 mm 0 W/m2
20:15 9.0 °C 1.7 °C 1022.6 hPa SW 24.5 km/h 46.5 km/h 60% 0.0 mm 0 W/m2
20:20 8.9 °C 1.8 °C 1022.6 hPa SW 24.5 km/h 46.5 km/h 61% 0.0 mm 0 W/m2
20:25 8.9 °C 2.0 °C 1022.6 hPa SW 30.6 km/h 43.9 km/h 62% 0.0 mm 0 W/m2
20:30 8.8 °C 1.9 °C 1022.9 hPa SW 24.5 km/h 43.9 km/h 62% 0.0 mm 0 W/m2
20:35 8.8 °C 2.2 °C 1022.9 hPa SW 21.9 km/h 40.4 km/h 63% 0.0 mm 0 W/m2
20:40 8.7 °C 2.5 °C 1022.9 hPa SW 30.6 km/h 40.4 km/h 65% 0.0 mm 0 W/m2
20:45 8.6 °C 1.7 °C 1022.9 hPa SW 24.5 km/h 39.3 km/h 62% 0.0 mm 0 W/m2
20:50 8.6 °C 1.9 °C 1022.9 hPa SW 27.0 km/h 41.7 km/h 63% 0.0 mm 0 W/m2
20:55 8.6 °C 1.5 °C 1023.2 hPa SW 24.5 km/h 47.9 km/h 61% 0.0 mm 0 W/m2
21:00 8.6 °C 1.9 °C 1022.9 hPa SW 20.9 km/h 47.9 km/h 63% 0.0 mm 0 W/m2
21:05 8.6 °C 1.3 °C 1022.9 hPa SW 15.8 km/h 46.5 km/h 60% 0.0 mm 0 W/m2
21:10 8.6 °C 1.5 °C 1023.2 hPa SW 24.5 km/h 46.5 km/h 61% 0.0 mm 0 W/m2
21:15 8.6 °C 1.3 °C 1023.2 hPa SSW 19.5 km/h 39.3 km/h 60% 0.0 mm 0 W/m2
21:20 8.5 °C 1.7 °C 1023.2 hPa SW 21.9 km/h 43.9 km/h 62% 0.0 mm 0 W/m2
21:25 8.5 °C 1.9 °C 1023.2 hPa SW 29.4 km/h 43.9 km/h 63% 0.0 mm 0 W/m2
21:30 8.4 °C 1.6 °C 1023.2 hPa WSW 19.5 km/h 42.8 km/h 62% 0.0 mm 0 W/m2
21:35 8.3 °C 1.9 °C 1023.2 hPa SW 24.5 km/h 42.8 km/h 64% 0.0 mm 0 W/m2
21:40 8.4 °C 2.2 °C 1023.6 hPa SW 23.3 km/h 39.3 km/h 65% 0.0 mm 0 W/m2
21:46 8.3 °C 2.1 °C 1023.2 hPa WSW 24.5 km/h 41.7 km/h 65% 0.0 mm 0 W/m2
21:51 8.3 °C 1.4 °C 1023.6 hPa SW 19.5 km/h 41.7 km/h 62% 0.0 mm 0 W/m2
21:56 8.3 °C 2.1 °C 1023.6 hPa SW 15.8 km/h 36.7 km/h 65% 0.0 mm 0 W/m2
22:01 8.1 °C 2.8 °C 1023.9 hPa SW 13.4 km/h 36.7 km/h 69% 0.0 mm 0 W/m2
22:06 8.0 °C 2.9 °C 1023.9 hPa SW 14.8 km/h 23.3 km/h 70% 0.0 mm 0 W/m2
22:11 7.9 °C 2.8 °C 1023.6 hPa WSW 9.7 km/h 23.3 km/h 70% 0.0 mm 0 W/m2
22:16 7.7 °C 2.6 °C 1023.9 hPa West 15.8 km/h 28.0 km/h 70% 0.0 mm 0 W/m2
22:21 7.8 °C 2.7 °C 1023.6 hPa WSW 20.9 km/h 36.7 km/h 70% 0.0 mm 0 W/m2
22:26 7.9 °C 2.6 °C 1023.6 hPa WSW 13.4 km/h 36.7 km/h 69% 0.0 mm 0 W/m2
22:31 7.8 °C 2.3 °C 1023.9 hPa WSW 17.2 km/h 31.7 km/h 68% 0.0 mm 0 W/m2
22:36 7.7 °C 2.4 °C 1023.9 hPa WSW 15.8 km/h 31.7 km/h 69% 0.0 mm 0 W/m2
22:41 7.6 °C 2.7 °C 1023.9 hPa WSW 14.8 km/h 27.0 km/h 71% 0.0 mm 0 W/m2
22:46 7.6 °C 2.5 °C 1024.3 hPa WSW 18.3 km/h 28.0 km/h 70% 0.0 mm 0 W/m2
22:51 7.6 °C 2.7 °C 1023.9 hPa WSW 13.4 km/h 28.0 km/h 71% 0.0 mm 0 W/m2
22:56 7.6 °C 2.7 °C 1023.9 hPa WSW 14.8 km/h 28.0 km/h 71% 0.0 mm 0 W/m2
23:01 7.6 °C 2.7 °C 1023.9 hPa West 15.8 km/h 24.5 km/h 71% 0.0 mm 0 W/m2
23:06 7.7 °C 2.6 °C 1023.9 hPa West 23.3 km/h 35.6 km/h 70% 0.0 mm 0 W/m2
23:11 7.7 °C 2.4 °C 1023.9 hPa West 12.2 km/h 35.6 km/h 69% 0.0 mm 0 W/m2
23:16 7.6 °C 2.1 °C 1024.3 hPa West 14.8 km/h 27.0 km/h 68% 0.0 mm 0 W/m2
23:21 7.5 °C 2.2 °C 1024.3 hPa West 8.7 km/h 25.6 km/h 69% 0.0 mm 0 W/m2
23:26 7.5 °C 2.0 °C 1023.9 hPa WSW 23.3 km/h 33.1 km/h 68% 0.0 mm 0 W/m2
23:31 7.5 °C 1.8 °C 1024.3 hPa SW 21.9 km/h 33.1 km/h 67% 0.0 mm 0 W/m2
23:36 7.5 °C 1.8 °C 1024.3 hPa SW 14.8 km/h 30.6 km/h 67% 0.0 mm 0 W/m2
23:41 7.5 °C 2.2 °C 1024.3 hPa WSW 19.5 km/h 30.6 km/h 69% 0.0 mm 0 W/m2
23:46 7.4 °C 2.1 °C 1024.3 hPa SW 19.5 km/h 28.0 km/h 69% 0.0 mm 0 W/m2
23:51 7.4 °C 1.9 °C 1024.3 hPa SW 17.2 km/h 33.1 km/h 68% 0.0 mm 0 W/m2
23:56 7.3 °C 1.8 °C 1024.3 hPa SW 9.7 km/h 33.1 km/h 68% 0.0 mm 0 W/m2
Northern Hawkes Bay. New Zealand Historic Data
Compliments of Weather Underground - 2.25 mb